Christos Xxxiv — SVA6643 — position and weather

sailwx.info

Track history (hours):
 
Tides and Currents Weather Stations Pressure Air Temp Water Temp Dewpoint Dewpoint Depression Visibility Wind Speed Wind Dir Waves Ship Positions

Christos Xxxiv

Last reported at 2017-Sep-15 09:46 UTC. Time now 2017-Sep-19 19:13 UTC.
Position N 37°58' E 023°34'.

Length 37 m; draft 5.1 m.

Type: Tug. MMSI: 241398000.

Date/timePositionNaut miles runAvg speedWind from/ knotsBaromVisibWave heightAir tempDewpointWater temp
2017-Sep-15 09:46N 37°58' E 023°34'0 0.0
2017-Sep-15 09:30N 37°58' E 023°34'0 0.0
2017-Sep-15 09:00N 37°58' E 023°34'0 0.0
2017-Sep-15 08:30N 37°58' E 023°34'1 1.2
2017-Sep-15 08:00N 37°57' E 023°33'0 0.0
2017-Sep-15 07:30N 37°57' E 023°33'0 0.0
2017-Sep-15 07:00N 37°57' E 023°33'0 0.0
2017-Sep-15 06:30N 37°57' E 023°33'1 1.2
2017-Sep-15 06:00N 37°58' E 023°34'  
2017-Sep-12 13:44N 37°57' E 023°33'0 1.8
2017-Sep-12 13:30N 37°58' E 023°34'0 0.0
2017-Sep-11 18:48N 37°58' E 023°34'1 4.5
2017-Sep-11 18:31N 37°57' E 023°35'1 2.1
2017-Sep-11 18:01N 37°57' E 023°34'0 0.0
2017-Sep-11 16:51N 37°57' E 023°34'0 0.0
2017-Sep-11 16:30N 37°57' E 023°34'0 0.0
2017-Sep-11 16:00N 37°57' E 023°34'0 0.0
2017-Sep-11 15:30N 37°57' E 023°34'0 0.0
2017-Sep-11 15:00N 37°57' E 023°34'0 0.0
2017-Sep-11 14:30N 37°57' E 023°34'0 0.0
2017-Sep-11 14:00N 37°57' E 023°34'0 0.0
2017-Sep-11 13:30N 37°57' E 023°34'0 0.0
2017-Sep-11 13:00N 37°57' E 023°34'0 0.0
2017-Sep-11 12:30N 37°57' E 023°34'0 0.0
2017-Sep-11 12:00N 37°57' E 023°34'0 0.0
2017-Sep-11 11:30N 37°57' E 023°34'3 5.6
2017-Sep-11 11:00N 37°56' E 023°37'1 1.3
2017-Sep-11 10:30N 37°56' E 023°38'3 6.8
2017-Sep-11 10:00N 37°58' E 023°34'0 0.0
2017-Sep-11 09:30N 37°58' E 023°34'0 0.0
2017-Sep-11 09:00N 37°58' E 023°34'0 0.0
2017-Sep-11 08:30N 37°58' E 023°34'0 0.0
2017-Sep-11 08:00N 37°58' E 023°34'0 0.0
2017-Sep-11 07:30N 37°58' E 023°34'0 0.0
2017-Sep-11 07:00N 37°58' E 023°34'0 0.0
2017-Sep-11 06:30N 37°58' E 023°34'0 0.0
2017-Sep-11 06:00N 37°58' E 023°34'0 0.1
2017-Sep-11 05:30N 37°58' E 023°34'0 0.7
2017-Sep-11 05:00N 37°58' E 023°33'2 3.1
2017-Sep-11 04:31N 37°57' E 023°35'1 2.0
2017-Sep-11 04:01N 37°56' E 023°35'2 4.8
2017-Sep-11 03:30N 37°58' E 023°33'  
Track history (hours):
 
Tides and Currents Weather Stations Pressure Air Temp Water Temp Dewpoint Dewpoint Depression Visibility Wind Speed Wind Dir Waves Ship Positions

Christos Xxxiv

Last reported at 2017-Sep-15 09:46 UTC. Time now 2017-Sep-19 19:13 UTC.
Position N 37°58' E 023°34'.

Length 37 m; draft 5.1 m.

Type: Tug. MMSI: 241398000.

Date/timePositionNaut miles runAvg speedWind from/ knotsBaromVisibWave heightAir tempDewpointWater temp
2017-Sep-15 09:46N 37°58' E 023°34'0 0.0
2017-Sep-15 09:30N 37°58' E 023°34'0 0.0
2017-Sep-15 09:00N 37°58' E 023°34'0 0.0
2017-Sep-15 08:30N 37°58' E 023°34'1 1.2
2017-Sep-15 08:00N 37°57' E 023°33'0 0.0
2017-Sep-15 07:30N 37°57' E 023°33'0 0.0
2017-Sep-15 07:00N 37°57' E 023°33'0 0.0
2017-Sep-15 06:30N 37°57' E 023°33'1 1.2
2017-Sep-15 06:00N 37°58' E 023°34'  
2017-Sep-12 13:44N 37°57' E 023°33'0 1.8
2017-Sep-12 13:30N 37°58' E 023°34'0 0.0
2017-Sep-11 18:48N 37°58' E 023°34'1 4.5
2017-Sep-11 18:31N 37°57' E 023°35'1 2.1
2017-Sep-11 18:01N 37°57' E 023°34'0 0.0
2017-Sep-11 16:51N 37°57' E 023°34'0 0.0
2017-Sep-11 16:30N 37°57' E 023°34'0 0.0
2017-Sep-11 16:00N 37°57' E 023°34'0 0.0
2017-Sep-11 15:30N 37°57' E 023°34'0 0.0
2017-Sep-11 15:00N 37°57' E 023°34'0 0.0
2017-Sep-11 14:30N 37°57' E 023°34'0 0.0
2017-Sep-11 14:00N 37°57' E 023°34'0 0.0
2017-Sep-11 13:30N 37°57' E 023°34'0 0.0
2017-Sep-11 13:00N 37°57' E 023°34'0 0.0
2017-Sep-11 12:30N 37°57' E 023°34'0 0.0
2017-Sep-11 12:00N 37°57' E 023°34'0 0.0
2017-Sep-11 11:30N 37°57' E 023°34'3 5.6
2017-Sep-11 11:00N 37°56' E 023°37'1 1.3
2017-Sep-11 10:30N 37°56' E 023°38'3 6.8
2017-Sep-11 10:00N 37°58' E 023°34'0 0.0
2017-Sep-11 09:30N 37°58' E 023°34'0 0.0
2017-Sep-11 09:00N 37°58' E 023°34'0 0.0
2017-Sep-11 08:30N 37°58' E 023°34'0 0.0
2017-Sep-11 08:00N 37°58' E 023°34'0 0.0
2017-Sep-11 07:30N 37°58' E 023°34'0 0.0
2017-Sep-11 07:00N 37°58' E 023°34'0 0.0
2017-Sep-11 06:30N 37°58' E 023°34'0 0.0
2017-Sep-11 06:00N 37°58' E 023°34'0 0.1
2017-Sep-11 05:30N 37°58' E 023°34'0 0.7
2017-Sep-11 05:00N 37°58' E 023°33'2 3.1
2017-Sep-11 04:31N 37°57' E 023°35'1 2.0
2017-Sep-11 04:01N 37°56' E 023°35'2 4.8
2017-Sep-11 03:30N 37°58' E 023°33'  

Dump ship's entire track history